METAR UND TAF INFORMATION

METAR FOR UMKK
ADDS - METARS form results

(0225 UTC 26 June 2022)
Data provider http://aviationweather.gov/metar/data/
 
METAR text: UMKK 260200Z 12003MPS CAVOK 17/17 Q1017 R06/CLRD95 NOSIG RMK QFE762/1016
Conditions at: UMKK (KALININGRAD , RU) observed 0200 UTC 26 June 2022
Temperature: 17.0°C (63°F)
Dewpoint: 17.0°C (63°F) [RH = 100%]
Pressure (altimeter): 30.03 inches Hg (1017.0 mb)
Winds: from the ESE (120 degrees) at 7 MPH (6 knots; 3.1 m/s)
Visibility: 6 or more miles (10+ km)
Ceiling: ceiling and visibility are OK
Clouds: unknown
Weather: no significant weather observed at this time

METAR text: UMKK 260130Z 11003MPS CAVOK 17/17 Q1017 R06/CLRD95 NOSIG RMK QFE762/1016
Conditions at: UMKK (KALININGRAD , RU) observed 0130 UTC 26 June 2022
Temperature: 17.0°C (63°F)
Dewpoint: 17.0°C (63°F) [RH = 100%]
Pressure (altimeter): 30.03 inches Hg (1017.0 mb)
Winds: from the ESE (110 degrees) at 7 MPH (6 knots; 3.1 m/s)
Visibility: 6 or more miles (10+ km)
Ceiling: ceiling and visibility are OK
Clouds: unknown
Weather: no significant weather observed at this time

Forecast for: UMKK (KALININGRAD , RU)
Text: TAF UMKK 260157Z 2603/2703 13003G08MPS CAVOK
Forecast period: 0300 to 1400 UTC 26 June 2022
Forecast type: FROM: standard forecast or significant change
Winds: from the SE (130 degrees) at 7 MPH (6 knots; 3.1 m/s)
gusting to 18 MPH (16 knots; 8.2 m/s)
Visibility: 6 or more miles (10+ km)
Ceiling: unknown
Clouds: missing
Weather: NSW  (no significant weather)
Text: BECMG 2614/2615 09003G08MPS
Forecast period: 1400 to 2000 UTC 26 June 2022
Forecast type: BECOMING: Conditions expected to become as follows by 1500 UTC 26 June 2022
Winds: from the E (90 degrees) at 7 MPH (6 knots; 3.1 m/s)
gusting to 18 MPH (16 knots; 8.2 m/s)
Visibility: 6 or more miles (10+ km)
Ceiling: unknown
Clouds: missing
Weather: NSW  (no significant weather)
Text: BECMG 2620/2622 12003MPS
Forecast period: 2000 UTC 26 June 2022 to 0300 UTC 27 June 2022
Forecast type: BECOMING: Conditions expected to become as follows by 2200 UTC 26 June 2022
Winds: from the ESE (120 degrees) at 7 MPH (6 knots; 3.1 m/s)
Visibility: 6 or more miles (10+ km)
Ceiling: unknown
Clouds: missing
Weather: NSW  (no significant weather)

 FLUGHAFENKARTE

 RUNWAY INFORMATION
Runway 06 Runway length 8202 ft Runway width 148 ft
Runway elevation 42 ft Runway displaced threshold 0 ft Runway heading 66
Runway 24 Runway length 8202 ft Runway width 148 ft
Runway elevation 31 ft Runway displaced threshold 0 ft Runway heading 246

 AIRPORT FREQUENCIES
Type GND Name KALININGRA Frequency 126 MHZ
Type MISC Name KALININGGR Frequency 131.7 MHZ
Type PMSV Name KALININGRA Frequency 122.05 MHZ
Type RDR Name KALININGRA Frequency 126 MHZ
Type TWR Name KALININGRA Frequency 129.425 MHZ
Type VOR-DME Name KRD Frequency 117.05 MHZ

 AIRPORT NEAR NAVIGATION AIDS
Type NDB Name Kaliningrad Frequency 840 KHZ